createdAt,value
2023-02-18T00:00:29.962Z,26.83
2023-02-18T00:02:56.920Z,25.70
2023-02-18T00:05:23.982Z,26.00
2023-02-18T00:07:51.896Z,25.40
2023-02-18T00:10:18.785Z,25.77
2023-02-18T00:12:46.348Z,25.73
2023-02-18T00:15:13.337Z,25.90
2023-02-18T00:17:40.254Z,25.13
2023-02-18T00:20:08.205Z,26.07
2023-02-18T00:22:35.349Z,24.20
2023-02-18T00:25:02.482Z,26.33
2023-02-18T00:27:29.385Z,25.77
2023-02-18T00:29:56.370Z,25.27
2023-02-18T00:32:23.288Z,24.00
2023-02-18T00:34:50.340Z,26.07
2023-02-18T00:37:17.274Z,23.17
2023-02-18T00:39:44.409Z,26.90
2023-02-18T00:42:11.433Z,25.27
2023-02-18T00:44:38.885Z,24.50
2023-02-18T00:47:05.806Z,26.57
2023-02-18T00:49:33.037Z,25.87
2023-02-18T00:51:59.883Z,24.37
2023-02-18T00:54:26.864Z,27.10
2023-02-18T00:56:53.857Z,26.20
2023-02-18T00:59:20.758Z,24.00
2023-02-18T01:01:47.640Z,25.10
2023-02-18T01:04:14.871Z,24.03
2023-02-18T01:06:41.764Z,24.90
2023-02-18T01:09:08.734Z,25.57
2023-02-18T01:11:35.840Z,24.03
2023-02-18T01:14:03.021Z,25.27
2023-02-18T01:16:30.299Z,26.40
2023-02-18T01:18:57.238Z,24.83
2023-02-18T01:21:24.197Z,25.70
2023-02-18T01:23:51.287Z,25.33
2023-02-18T01:26:18.639Z,24.27
2023-02-18T01:28:45.644Z,24.87
2023-02-18T01:31:14.485Z,24.40
2023-02-18T01:33:42.486Z,24.80
2023-02-18T01:36:11.389Z,26.50
2023-02-18T01:38:39.008Z,24.63
2023-02-18T01:41:06.271Z,23.93
2023-02-18T01:43:34.518Z,22.93
2023-02-18T01:46:04.226Z,25.50
2023-02-18T01:48:39.168Z,22.80
2023-02-18T01:51:15.240Z,23.33
2023-02-18T01:54:04.132Z,26.37
2023-02-18T01:56:47.544Z,24.40
2023-02-18T01:59:20.512Z,25.00
2023-02-18T02:01:47.661Z,23.80
2023-02-18T02:04:14.745Z,22.67
2023-02-18T02:06:42.512Z,23.13
2023-02-18T02:09:13.501Z,22.33
2023-02-18T02:12:08.094Z,23.93
2023-02-18T02:15:04.371Z,24.10
2023-02-18T02:18:05.067Z,23.10
2023-02-18T02:21:05.838Z,22.80
2023-02-18T02:24:09.527Z,23.90
2023-02-18T02:26:58.231Z,23.07
2023-02-18T02:29:28.416Z,22.80
2023-02-18T02:32:28.617Z,21.80
2023-02-18T02:34:59.051Z,21.20
2023-02-18T02:37:44.092Z,20.23
2023-02-18T02:40:32.821Z,20.50
2023-02-18T02:43:08.735Z,19.10
2023-02-18T02:45:44.574Z,17.87
2023-02-18T02:48:44.635Z,17.97
2023-02-18T02:51:16.125Z,16.50
2023-02-18T02:53:44.118Z,15.77
2023-02-18T02:56:24.570Z,13.80
2023-02-18T02:59:04.440Z,13.67
2023-02-18T03:01:52.603Z,13.80
2023-02-18T03:05:07.682Z,12.37
2023-02-18T03:07:35.060Z,12.43
2023-02-18T03:10:10.859Z,12.83
2023-02-18T03:12:55.961Z,11.63
2023-02-18T03:15:28.697Z,12.97
2023-02-18T03:18:05.272Z,12.27
2023-02-18T03:20:36.600Z,13.10
2023-02-18T03:23:10.550Z,12.43
2023-02-18T03:25:39.612Z,13.87
2023-02-18T03:28:11.008Z,14.07
2023-02-18T03:30:55.742Z,14.13
2023-02-18T03:33:28.937Z,13.70
2023-02-18T03:35:57.532Z,15.30
2023-02-18T03:38:38.591Z,13.57
2023-02-18T03:41:06.354Z,13.90
2023-02-18T03:43:33.835Z,14.40
2023-02-18T03:46:01.531Z,14.20
2023-02-18T03:48:28.938Z,13.03
2023-02-18T03:50:55.828Z,13.03
2023-02-18T03:53:23.502Z,14.27
2023-02-18T03:55:50.418Z,14.30
2023-02-18T03:58:17.333Z,14.73
2023-02-18T04:00:44.174Z,14.13
2023-02-18T04:03:11.316Z,15.63
2023-02-18T04:05:38.288Z,14.93
2023-02-18T04:08:05.738Z,15.10
2023-02-18T04:10:32.583Z,14.47
2023-02-18T04:13:00.000Z,15.87
2023-02-18T04:15:27.156Z,14.00
2023-02-18T04:17:54.037Z,14.10
2023-02-18T04:20:22.630Z,14.80
2023-02-18T04:22:49.743Z,17.27
2023-02-18T04:25:16.759Z,13.60
2023-02-18T04:27:43.708Z,14.63
2023-02-18T04:30:11.403Z,12.90
2023-02-18T04:32:38.459Z,12.50
2023-02-18T04:35:06.377Z,13.20
2023-02-18T04:37:33.469Z,12.87
2023-02-18T04:40:00.627Z,12.83
2023-02-18T04:42:27.507Z,11.13
2023-02-18T04:44:54.536Z,10.40
2023-02-18T04:47:21.423Z,11.23
2023-02-18T04:49:48.838Z,11.10
2023-02-18T04:52:15.772Z,9.23
2023-02-18T04:54:42.917Z,9.27
2023-02-18T04:57:10.625Z,7.17
2023-02-18T04:59:37.630Z,7.90
2023-02-18T05:02:05.236Z,7.70
2023-02-18T05:04:32.140Z,6.40
2023-02-18T05:06:59.542Z,6.07
2023-02-18T05:09:26.936Z,5.77
2023-02-18T05:11:53.915Z,5.73
2023-02-18T05:14:20.835Z,5.57
2023-02-18T05:16:47.749Z,4.70
2023-02-18T05:19:15.701Z,5.00
2023-02-18T05:21:43.246Z,5.07
2023-02-18T05:24:10.386Z,4.70
2023-02-18T05:26:37.352Z,4.73
2023-02-18T05:29:04.570Z,3.97
2023-02-18T05:31:31.467Z,4.30
2023-02-18T05:33:58.173Z,4.23
2023-02-18T05:36:26.820Z,4.20
2023-02-18T05:38:53.515Z,3.50
2023-02-18T05:41:20.780Z,4.23
2023-02-18T05:44:06.400Z,3.40
2023-02-18T05:46:33.661Z,3.70
2023-02-18T05:49:00.574Z,3.50
2023-02-18T05:51:27.655Z,3.20
2023-02-18T05:53:56.232Z,3.70
2023-02-18T05:56:23.590Z,3.70
2023-02-18T05:58:50.250Z,3.77
2023-02-18T06:01:17.007Z,3.77
2023-02-18T06:03:43.673Z,3.27
2023-02-18T06:06:11.081Z,2.97
2023-02-18T06:08:38.036Z,3.47
2023-02-18T06:11:05.248Z,4.00
2023-02-18T06:13:32.070Z,3.20
2023-02-18T06:15:59.241Z,3.53
2023-02-18T06:18:25.941Z,3.73
2023-02-18T06:20:53.224Z,2.57
2023-02-18T06:23:19.932Z,3.50
2023-02-18T06:25:50.115Z,2.80
2023-02-18T06:28:18.321Z,3.53
2023-02-18T06:30:45.769Z,3.00
2023-02-18T06:33:12.870Z,3.37
2023-02-18T06:35:39.657Z,3.87
2023-02-18T06:38:06.631Z,3.10
2023-02-18T06:40:33.292Z,3.60
2023-02-18T06:43:00.013Z,3.30
2023-02-18T06:45:26.770Z,2.90
2023-02-18T06:47:53.602Z,3.30
2023-02-18T06:50:20.299Z,2.87
2023-02-18T06:52:47.531Z,2.77
2023-02-18T06:55:14.358Z,3.07
2023-02-18T06:57:41.067Z,3.13
2023-02-18T07:00:08.488Z,3.50
2023-02-18T07:02:35.481Z,3.63
2023-02-18T07:05:02.149Z,3.90
2023-02-18T07:07:28.924Z,3.47
2023-02-18T07:09:55.690Z,3.43
2023-02-18T07:12:22.503Z,3.07
2023-02-18T07:14:49.168Z,2.97
2023-02-18T07:17:15.913Z,2.93
2023-02-18T07:19:42.594Z,2.77
2023-02-18T07:22:09.523Z,3.00
2023-02-18T07:24:36.229Z,3.23
2023-02-18T07:27:03.068Z,3.27
2023-02-18T07:29:29.770Z,3.30
2023-02-18T07:31:58.483Z,3.23
2023-02-18T07:34:25.204Z,3.23
2023-02-18T07:36:51.927Z,3.23
2023-02-18T07:39:20.704Z,3.50
2023-02-18T07:41:48.318Z,3.20
2023-02-18T07:44:15.316Z,2.90
2023-02-18T07:46:43.039Z,3.33
2023-02-18T07:49:09.986Z,2.83
2023-02-18T07:51:38.376Z,3.50
2023-02-18T07:54:05.173Z,3.67
2023-02-18T07:56:32.190Z,3.37
2023-02-18T07:58:59.134Z,3.40
2023-02-18T08:03:53.998Z,3.90
2023-02-18T08:06:26.518Z,4.20
2023-02-18T08:08:53.428Z,4.30
2023-02-18T08:11:20.474Z,5.00
2023-02-18T08:13:48.983Z,4.57
2023-02-18T08:16:20.674Z,3.70
2023-02-18T08:18:48.912Z,3.80
2023-02-18T08:21:17.694Z,3.27
2023-02-18T08:23:45.200Z,3.50
2023-02-18T08:26:12.450Z,3.90
2023-02-18T08:28:39.456Z,4.40
2023-02-18T08:31:06.737Z,4.50
2023-02-18T08:33:35.057Z,4.90
2023-02-18T08:36:01.981Z,4.70
2023-02-18T08:38:28.957Z,4.83
2023-02-18T08:41:04.364Z,4.63
2023-02-18T08:43:31.273Z,4.90
2023-02-18T08:45:59.407Z,4.63
2023-02-18T08:48:27.447Z,5.10
2023-02-18T08:50:54.478Z,5.40
2023-02-18T08:53:21.628Z,5.90
2023-02-18T08:55:48.538Z,6.27
2023-02-18T08:58:15.655Z,5.23
2023-02-18T09:00:43.956Z,5.13
2023-02-18T09:03:16.230Z,5.60
2023-02-18T09:05:43.310Z,6.30
2023-02-18T09:08:13.675Z,5.37
2023-02-18T09:10:40.636Z,6.23
2023-02-18T09:13:07.574Z,6.07
2023-02-18T09:15:34.620Z,6.40
2023-02-18T09:18:01.647Z,5.80
2023-02-18T09:20:28.771Z,7.60
2023-02-18T09:22:55.912Z,6.00
2023-02-18T09:25:22.781Z,6.60
2023-02-18T09:27:49.852Z,6.30
2023-02-18T09:30:16.901Z,6.23
2023-02-18T09:32:43.854Z,7.10
2023-02-18T09:35:10.863Z,7.50
2023-02-18T09:37:39.978Z,7.57
2023-02-18T09:40:07.612Z,7.47
2023-02-18T09:42:35.798Z,7.10
2023-02-18T09:45:11.472Z,6.90
2023-02-18T09:47:42.682Z,8.83
2023-02-18T09:50:32.345Z,7.63
2023-02-18T09:53:02.210Z,7.40
2023-02-18T09:55:38.470Z,8.23
2023-02-18T09:58:07.991Z,6.60
2023-02-18T10:00:41.854Z,8.10
2023-02-18T10:03:20.078Z,6.90
2023-02-18T10:05:59.112Z,7.33
2023-02-18T10:08:47.343Z,7.90
2023-02-18T10:11:28.646Z,7.17
2023-02-18T10:13:57.421Z,7.33
2023-02-18T10:16:25.490Z,7.13
2023-02-18T10:19:03.991Z,7.43
2023-02-18T10:21:34.956Z,8.60
2023-02-18T10:24:05.434Z,6.37
2023-02-18T10:26:36.316Z,6.60
2023-02-18T10:29:03.778Z,7.20
2023-02-18T10:31:54.554Z,7.90
2023-02-18T10:34:30.458Z,7.10
2023-02-18T10:37:23.369Z,6.60
2023-02-18T10:40:09.524Z,6.70
2023-02-18T10:43:35.563Z,7.00
2023-02-18T10:46:25.786Z,5.50
2023-02-18T10:49:02.282Z,7.17
2023-02-18T10:51:32.699Z,6.90
2023-02-18T10:54:00.929Z,6.17
2023-02-18T10:56:35.719Z,6.57
2023-02-18T10:59:27.631Z,5.33
2023-02-18T11:02:03.612Z,6.60
2023-02-18T11:04:44.279Z,6.53
2023-02-18T11:07:25.657Z,6.50
2023-02-18T11:09:53.685Z,6.43
2023-02-18T11:12:43.538Z,6.70
2023-02-18T11:15:10.395Z,6.20
2023-02-18T11:17:38.050Z,6.63
2023-02-18T11:20:30.695Z,7.50
2023-02-18T11:23:00.369Z,6.37
2023-02-18T11:25:33.521Z,6.70
2023-02-18T11:28:17.939Z,6.30
2023-02-18T11:30:48.021Z,7.40
2023-02-18T11:33:39.580Z,5.83
2023-02-18T11:36:30.857Z,7.20
2023-02-18T11:39:07.845Z,6.83
2023-02-18T11:41:57.864Z,6.77
2023-02-18T11:44:41.433Z,7.03
2023-02-18T11:47:14.783Z,7.37
2023-02-18T11:49:43.757Z,7.13
2023-02-18T11:52:19.957Z,7.00
2023-02-18T11:55:02.741Z,7.97
2023-02-18T11:57:30.559Z,7.07
2023-02-18T11:59:59.776Z,6.80
2023-02-18T12:02:29.530Z,6.50
2023-02-18T12:05:23.668Z,7.37
2023-02-18T12:08:06.052Z,6.80
2023-02-18T12:10:44.897Z,7.37
2023-02-18T12:13:29.929Z,6.03
2023-02-18T12:16:06.283Z,5.90
2023-02-18T12:18:51.890Z,6.63
2023-02-18T12:21:39.848Z,6.60
2023-02-18T12:24:38.824Z,7.13
2023-02-18T12:27:14.985Z,6.70
2023-02-18T12:30:10.914Z,6.33
2023-02-18T12:32:41.041Z,6.83
2023-02-18T12:35:41.018Z,6.80
2023-02-18T12:38:32.884Z,7.20
2023-02-18T12:41:27.479Z,6.83
2023-02-18T12:44:03.557Z,7.57
2023-02-18T12:46:30.474Z,7.60
2023-02-18T12:49:22.825Z,7.03
2023-02-18T12:52:11.503Z,7.80
2023-02-18T12:55:16.502Z,7.80
2023-02-18T12:58:10.809Z,8.30
2023-02-18T13:01:09.872Z,7.43
2023-02-18T13:04:06.336Z,7.60
2023-02-18T13:06:48.493Z,8.63
2023-02-18T13:09:39.610Z,9.17
2023-02-18T13:12:25.968Z,8.40
2023-02-18T13:15:11.967Z,8.70
2023-02-18T13:17:43.070Z,8.77
2023-02-18T13:20:56.735Z,8.50
2023-02-18T13:23:28.226Z,9.13
2023-02-18T13:26:03.463Z,9.03
2023-02-18T13:28:43.953Z,9.30
2023-02-18T13:31:22.716Z,8.63
2023-02-18T13:33:55.896Z,8.20
2023-02-18T13:36:40.887Z,9.10
2023-02-18T13:39:19.579Z,9.30
2023-02-18T13:41:49.265Z,8.60
2023-02-18T13:44:22.304Z,9.50
2023-02-18T13:46:52.347Z,9.50
2023-02-18T13:49:26.465Z,10.13
2023-02-18T13:51:58.935Z,9.60
2023-02-18T13:54:31.628Z,10.20
2023-02-18T13:57:05.704Z,10.10
2023-02-18T13:59:38.613Z,10.30
2023-02-18T14:02:21.451Z,10.10
2023-02-18T14:05:15.358Z,9.67
2023-02-18T14:08:03.531Z,10.57
2023-02-18T14:10:36.846Z,11.00
2023-02-18T14:13:42.991Z,11.07
2023-02-18T14:16:11.423Z,10.83
2023-02-18T14:18:41.401Z,11.70
2023-02-18T14:21:20.279Z,12.50
2023-02-18T14:23:58.395Z,9.70
2023-02-18T14:26:30.824Z,11.60
2023-02-18T14:29:03.087Z,11.77
2023-02-18T14:31:37.038Z,10.37
2023-02-18T14:34:19.583Z,11.97
2023-02-18T14:37:20.265Z,11.80
2023-02-18T14:40:02.658Z,10.40
2023-02-18T14:42:53.573Z,11.20
2023-02-18T14:45:50.704Z,9.97
2023-02-18T14:48:29.820Z,9.97
2023-02-18T14:51:00.249Z,8.93
2023-02-18T14:53:28.462Z,8.30
2023-02-18T14:55:59.910Z,9.50
2023-02-18T14:58:35.323Z,8.53
2023-02-18T15:01:28.159Z,8.00
2023-02-18T15:03:56.702Z,8.70
2023-02-18T15:06:36.616Z,9.57
2023-02-18T15:09:22.689Z,9.03
2023-02-18T15:11:58.392Z,8.40
2023-02-18T15:14:30.639Z,8.20
2023-02-18T15:16:58.910Z,9.07
2023-02-18T15:19:30.236Z,8.97
2023-02-18T15:21:58.108Z,8.53
2023-02-18T15:24:35.441Z,9.60
2023-02-18T15:27:22.448Z,8.30
2023-02-18T15:29:52.153Z,7.90
2023-02-18T15:32:27.611Z,8.50
2023-02-18T15:35:03.883Z,8.40
2023-02-18T15:37:31.109Z,7.80
2023-02-18T15:39:58.475Z,7.70
2023-02-18T15:42:36.989Z,8.27
2023-02-18T15:45:19.987Z,7.20
2023-02-18T15:47:51.548Z,8.07
2023-02-18T15:50:26.540Z,7.20
2023-02-18T15:52:57.026Z,7.30
2023-02-18T15:55:34.821Z,7.10
2023-02-18T15:58:15.801Z,7.63
2023-02-18T16:00:55.651Z,7.33
2023-02-18T16:03:31.247Z,8.10
2023-02-18T16:06:12.098Z,7.70
2023-02-18T16:08:41.479Z,6.60
2023-02-18T16:11:13.714Z,6.90
2023-02-18T16:13:48.153Z,6.20
2023-02-18T16:16:25.280Z,6.60
2023-02-18T16:18:52.350Z,5.13
2023-02-18T16:21:19.310Z,6.40
2023-02-18T16:23:59.547Z,6.47
2023-02-18T16:26:38.533Z,5.90
2023-02-18T16:29:14.227Z,6.50
2023-02-18T16:31:41.875Z,7.73
2023-02-18T16:34:09.301Z,6.87
2023-02-18T16:36:36.322Z,7.90
2023-02-18T16:39:04.287Z,7.50
2023-02-18T16:41:31.280Z,9.10
2023-02-18T16:43:58.305Z,8.77
2023-02-18T16:46:25.730Z,10.17
2023-02-18T16:48:56.764Z,10.60
2023-02-18T16:51:25.362Z,10.93
2023-02-18T16:53:52.714Z,11.43
2023-02-18T16:56:25.901Z,12.77
2023-02-18T16:58:53.065Z,12.50
2023-02-18T17:01:31.816Z,13.10
2023-02-18T17:04:00.629Z,14.57
2023-02-18T17:06:28.194Z,14.70
2023-02-18T17:08:55.341Z,13.90
2023-02-18T17:11:28.917Z,15.20
2023-02-18T17:13:58.409Z,16.13
2023-02-18T17:16:26.476Z,15.37
2023-02-18T17:18:53.333Z,17.00
2023-02-18T17:21:22.537Z,16.00
2023-02-18T17:23:49.824Z,15.47
2023-02-18T17:26:24.985Z,14.80
2023-02-18T17:28:53.039Z,15.90
2023-02-18T17:31:41.782Z,15.20
2023-02-18T17:34:12.467Z,15.10
2023-02-18T17:36:45.170Z,14.43
2023-02-18T17:39:14.326Z,14.17
2023-02-18T17:41:41.680Z,15.00
2023-02-18T17:44:20.100Z,13.23
2023-02-18T17:46:49.558Z,14.33
2023-02-18T17:49:16.647Z,14.80
2023-02-18T17:51:43.589Z,14.17
2023-02-18T17:54:12.437Z,14.60
2023-02-18T17:56:39.354Z,13.80
2023-02-18T17:59:06.020Z,13.40
2023-02-18T18:01:32.795Z,13.70
2023-02-18T18:03:59.655Z,13.20
2023-02-18T18:06:26.489Z,13.70
2023-02-18T18:08:53.378Z,13.60
2023-02-18T18:11:22.752Z,12.63
2023-02-18T18:13:50.065Z,13.43
2023-02-18T18:16:18.066Z,12.60
2023-02-18T18:18:44.821Z,13.00
2023-02-18T18:21:23.131Z,12.70
2023-02-18T18:23:50.591Z,11.13
2023-02-18T18:26:17.658Z,12.70
2023-02-18T18:28:44.312Z,12.10
2023-02-18T18:31:18.706Z,12.00
2023-02-18T18:33:48.928Z,12.67
2023-02-18T18:36:16.534Z,12.73
2023-02-18T18:38:43.299Z,11.43
2023-02-18T18:41:15.090Z,12.90
2023-02-18T18:43:41.789Z,13.73
2023-02-18T18:46:08.600Z,13.33
2023-02-18T18:48:35.423Z,14.07
2023-02-18T18:51:02.570Z,13.80
2023-02-18T18:53:32.390Z,14.50
2023-02-18T18:56:01.961Z,13.93
2023-02-18T18:58:28.723Z,15.37
2023-02-18T19:01:01.984Z,16.70
2023-02-18T19:03:30.684Z,15.37
2023-02-18T19:05:57.936Z,15.60
2023-02-18T19:08:25.291Z,15.27
2023-02-18T19:10:54.520Z,15.40
2023-02-18T19:13:24.367Z,14.47
2023-02-18T19:16:00.491Z,15.00
2023-02-18T19:18:27.955Z,14.77
2023-02-18T19:20:54.671Z,14.30
2023-02-18T19:23:21.407Z,15.57
2023-02-18T19:25:48.415Z,14.63
2023-02-18T19:28:15.092Z,16.20
2023-02-18T19:30:42.587Z,17.00
2023-02-18T19:33:11.647Z,14.87
2023-02-18T19:35:40.031Z,15.10
2023-02-18T19:38:12.432Z,15.77
2023-02-18T19:40:40.546Z,15.83
2023-02-18T19:43:10.457Z,15.87
2023-02-18T19:45:44.325Z,17.60
2023-02-18T19:48:12.734Z,18.80
2023-02-18T19:50:42.095Z,18.53
2023-02-18T19:53:09.738Z,19.90
2023-02-18T19:55:36.448Z,18.87
2023-02-18T19:58:03.193Z,20.17
2023-02-18T20:00:29.939Z,19.83
2023-02-18T20:02:57.005Z,19.07
2023-02-18T20:05:23.778Z,19.63
2023-02-18T20:07:50.512Z,18.30
2023-02-18T20:10:20.135Z,19.10
2023-02-18T20:12:53.172Z,17.83
2023-02-18T20:15:20.671Z,16.80
2023-02-18T20:17:47.399Z,18.70
2023-02-18T20:20:14.171Z,19.07
2023-02-18T20:22:40.924Z,17.97
2023-02-18T20:25:07.852Z,18.67
2023-02-18T20:27:37.522Z,19.67
2023-02-18T20:30:08.179Z,18.10
2023-02-18T20:32:36.234Z,17.20
2023-02-18T20:35:04.886Z,18.80
2023-02-18T20:37:32.303Z,18.73
2023-02-18T20:39:58.981Z,17.90
2023-02-18T20:42:25.900Z,17.83
2023-02-18T20:44:52.741Z,16.50
2023-02-18T20:47:19.474Z,16.27
2023-02-18T20:49:47.184Z,16.60
2023-02-18T20:52:14.203Z,17.33
2023-02-18T20:54:41.020Z,16.03
2023-02-18T20:57:08.914Z,17.37
2023-02-18T20:59:36.119Z,17.37
2023-02-18T21:02:03.394Z,18.80
2023-02-18T21:04:30.191Z,17.43
2023-02-18T21:06:56.980Z,18.20
2023-02-18T21:09:23.792Z,18.23
2023-02-18T21:11:50.475Z,17.10
2023-02-18T21:14:17.265Z,17.83
2023-02-18T21:16:44.011Z,16.70
2023-02-18T21:19:17.148Z,18.70
2023-02-18T21:21:46.942Z,17.10
2023-02-18T21:24:14.385Z,18.37
2023-02-18T21:26:42.637Z,19.07
2023-02-18T21:29:10.089Z,20.13
2023-02-18T21:31:42.674Z,19.20
2023-02-18T21:34:14.248Z,18.80
2023-02-18T21:36:42.209Z,17.03
2023-02-18T21:39:10.795Z,16.43
2023-02-18T21:41:40.384Z,16.30
2023-02-18T21:44:08.660Z,16.47
2023-02-18T21:46:36.747Z,16.90
2023-02-18T21:49:10.050Z,17.07
2023-02-18T21:51:57.632Z,18.33
2023-02-18T21:54:33.654Z,17.30
2023-02-18T21:57:03.763Z,17.87
2023-02-18T21:59:31.884Z,17.37
2023-02-18T22:02:01.950Z,17.73
2023-02-18T22:04:30.636Z,18.20
2023-02-18T22:06:58.453Z,17.07
2023-02-18T22:09:25.595Z,17.30
2023-02-18T22:11:52.661Z,17.80
2023-02-18T22:14:19.524Z,18.00
2023-02-18T22:16:46.824Z,16.80
2023-02-18T22:19:14.615Z,16.00
2023-02-18T22:21:42.364Z,17.10
2023-02-18T22:24:11.641Z,17.60
2023-02-18T22:26:38.446Z,17.73
2023-02-18T22:29:05.837Z,16.40
2023-02-18T22:31:33.170Z,16.40
2023-02-18T22:34:00.520Z,18.37
2023-02-18T22:36:28.601Z,17.87
2023-02-18T22:38:55.905Z,16.40
2023-02-18T22:41:24.488Z,19.43
2023-02-18T22:43:59.781Z,18.07
2023-02-18T22:46:27.774Z,17.73
2023-02-18T22:48:58.955Z,17.27
2023-02-18T22:51:41.693Z,18.57
2023-02-18T22:54:15.791Z,17.27
2023-02-18T22:56:43.354Z,17.83
2023-02-18T22:59:12.040Z,17.63
2023-02-18T23:01:41.280Z,19.30
2023-02-18T23:04:14.310Z,18.40
2023-02-18T23:06:43.423Z,18.63
2023-02-18T23:09:14.293Z,17.93
2023-02-18T23:11:41.006Z,18.30
2023-02-18T23:14:21.277Z,17.80
2023-02-18T23:17:17.729Z,18.80
2023-02-18T23:19:47.770Z,19.43
2023-02-18T23:22:17.970Z,20.43
2023-02-18T23:24:46.335Z,19.50
2023-02-18T23:27:14.919Z,18.77
2023-02-18T23:29:42.714Z,19.23
2023-02-18T23:32:10.995Z,19.87
2023-02-18T23:34:38.515Z,19.60
2023-02-18T23:37:05.638Z,18.87
2023-02-18T23:39:33.135Z,19.30
2023-02-18T23:41:59.924Z,19.70
2023-02-18T23:44:27.875Z,21.20
2023-02-18T23:46:55.303Z,19.60
2023-02-18T23:49:24.556Z,19.50
2023-02-18T23:51:52.970Z,19.83
2023-02-18T23:54:20.521Z,19.40
2023-02-18T23:56:47.481Z,20.00
2023-02-18T23:59:14.294Z,21.00
